sensor_id;sensor_type;location;lat;lon;timestamp;P1;P2;P0
61815;PMS5003;57055;-35.296;149.168;2023-04-23T00:00:38;31;29;
61815;PMS5003;57055;-35.296;149.168;2023-04-23T00:03:08;34;31;
61815;PMS5003;57055;-35.296;149.168;2023-04-23T00:05:39;31;30;
61815;PMS5003;57055;-35.296;149.168;2023-04-23T00:08:09;34;30;
61815;PMS5003;57055;-35.296;149.168;2023-04-23T00:10:39;34;31;
61815;PMS5003;57055;-35.296;149.168;2023-04-23T00:13:08;33;30;
61815;PMS5003;57055;-35.296;149.168;2023-04-23T00:15:37;26;25;
61815;PMS5003;57055;-35.296;149.168;2023-04-23T00:18:06;24;24;
61815;PMS5003;57055;-35.296;149.168;2023-04-23T00:20:35;32;29;
61815;PMS5003;57055;-35.296;149.168;2023-04-23T00:23:04;27;26;
61815;PMS5003;57055;-35.296;149.168;2023-04-23T00:25:33;27;26;
61815;PMS5003;57055;-35.296;149.168;2023-04-23T00:28:02;24;23;
61815;PMS5003;57055;-35.296;149.168;2023-04-23T00:30:31;25;25;
61815;PMS5003;57055;-35.296;149.168;2023-04-23T00:33:01;26;25;
61815;PMS5003;57055;-35.296;149.168;2023-04-23T00:35:31;21;21;
61815;PMS5003;57055;-35.296;149.168;2023-04-23T00:37:59;26;23;
61815;PMS5003;57055;-35.296;149.168;2023-04-23T00:40:28;22;21;
61815;PMS5003;57055;-35.296;149.168;2023-04-23T00:42:57;16;15;
61815;PMS5003;57055;-35.296;149.168;2023-04-23T00:45:27;22;18;
61815;PMS5003;57055;-35.296;149.168;2023-04-23T00:47:56;16;16;
61815;PMS5003;57055;-35.296;149.168;2023-04-23T00:50:25;18;16;
61815;PMS5003;57055;-35.296;149.168;2023-04-23T00:52:54;17;15;
61815;PMS5003;57055;-35.296;149.168;2023-04-23T00:55:23;18;16;
61815;PMS5003;57055;-35.296;149.168;2023-04-23T00:57:53;19;16;
61815;PMS5003;57055;-35.296;149.168;2023-04-23T01:00:22;16;16;
61815;PMS5003;57055;-35.296;149.168;2023-04-23T01:02:51;18;15;
61815;PMS5003;57055;-35.296;149.168;2023-04-23T01:05:21;17;16;
61815;PMS5003;57055;-35.296;149.168;2023-04-23T01:07:51;12;12;
61815;PMS5003;57055;-35.296;149.168;2023-04-23T01:10:20;16;16;
61815;PMS5003;57055;-35.296;149.168;2023-04-23T01:12:50;14;14;
61815;PMS5003;57055;-35.296;149.168;2023-04-23T01:15:19;13;12;
61815;PMS5003;57055;-35.296;149.168;2023-04-23T01:17:48;15;15;
61815;PMS5003;57055;-35.296;149.168;2023-04-23T01:20:16;15;15;
61815;PMS5003;57055;-35.296;149.168;2023-04-23T01:22:45;16;15;
61815;PMS5003;57055;-35.296;149.168;2023-04-23T01:25:15;17;15;
61815;PMS5003;57055;-35.296;149.168;2023-04-23T01:27:44;14;13;
61815;PMS5003;57055;-35.296;149.168;2023-04-23T01:30:13;16;14;
61815;PMS5003;57055;-35.296;149.168;2023-04-23T01:32:43;13;13;
61815;PMS5003;57055;-35.296;149.168;2023-04-23T01:35:14;14;14;
61815;PMS5003;57055;-35.296;149.168;2023-04-23T01:37:43;15;14;
61815;PMS5003;57055;-35.296;149.168;2023-04-23T01:40:14;17;15;
61815;PMS5003;57055;-35.296;149.168;2023-04-23T01:42:44;12;12;
61815;PMS5003;57055;-35.296;149.168;2023-04-23T01:45:13;16;15;
61815;PMS5003;57055;-35.296;149.168;2023-04-23T01:47:42;14;13;
61815;PMS5003;57055;-35.296;149.168;2023-04-23T01:50:12;13;11;
61815;PMS5003;57055;-35.296;149.168;2023-04-23T01:52:40;13;13;
61815;PMS5003;57055;-35.296;149.168;2023-04-23T01:55:09;12;11;
61815;PMS5003;57055;-35.296;149.168;2023-04-23T01:57:38;14;12;
61815;PMS5003;57055;-35.296;149.168;2023-04-23T02:00:08;12;11;
61815;PMS5003;57055;-35.296;149.168;2023-04-23T02:02:39;12;12;
61815;PMS5003;57055;-35.296;149.168;2023-04-23T02:05:10;12;12;
61815;PMS5003;57055;-35.296;149.168;2023-04-23T02:07:40;11;11;
61815;PMS5003;57055;-35.296;149.168;2023-04-23T02:10:10;11;11;
61815;PMS5003;57055;-35.296;149.168;2023-04-23T02:12:40;14;14;
61815;PMS5003;57055;-35.296;149.168;2023-04-23T02:15:10;12;12;
61815;PMS5003;57055;-35.296;149.168;2023-04-23T02:17:39;13;10;
61815;PMS5003;57055;-35.296;149.168;2023-04-23T02:20:08;11;11;
61815;PMS5003;57055;-35.296;149.168;2023-04-23T02:22:39;13;12;
61815;PMS5003;57055;-35.296;149.168;2023-04-23T02:25:09;10;9;
61815;PMS5003;57055;-35.296;149.168;2023-04-23T02:27:38;11;9;
61815;PMS5003;57055;-35.296;149.168;2023-04-23T02:30:07;10;9;
61815;PMS5003;57055;-35.296;149.168;2023-04-23T02:32:38;10;8;
61815;PMS5003;57055;-35.296;149.168;2023-04-23T02:35:07;10;10;
61815;PMS5003;57055;-35.296;149.168;2023-04-23T02:37:36;6;6;
61815;PMS5003;57055;-35.296;149.168;2023-04-23T02:40:05;8;8;
61815;PMS5003;57055;-35.296;149.168;2023-04-23T02:42:35;5;5;
61815;PMS5003;57055;-35.296;149.168;2023-04-23T02:45:04;6;6;
61815;PMS5003;57055;-35.296;149.168;2023-04-23T02:47:34;6;6;
61815;PMS5003;57055;-35.296;149.168;2023-04-23T02:50:04;6;6;
61815;PMS5003;57055;-35.296;149.168;2023-04-23T02:52:33;8;6;
61815;PMS5003;57055;-35.296;149.168;2023-04-23T02:55:02;4;4;
61815;PMS5003;57055;-35.296;149.168;2023-04-23T02:57:31;5;5;
61815;PMS5003;57055;-35.296;149.168;2023-04-23T02:59:59;7;6;
61815;PMS5003;57055;-35.296;149.168;2023-04-23T03:02:29;7;7;
61815;PMS5003;57055;-35.296;149.168;2023-04-23T03:04:58;6;6;
61815;PMS5003;57055;-35.296;149.168;2023-04-23T03:07:27;6;6;
61815;PMS5003;57055;-35.296;149.168;2023-04-23T03:09:55;6;6;
61815;PMS5003;57055;-35.296;149.168;2023-04-23T03:12:24;9;8;
61815;PMS5003;57055;-35.296;149.168;2023-04-23T03:14:52;9;7;
61815;PMS5003;57055;-35.296;149.168;2023-04-23T03:17:21;6;5;
61815;PMS5003;57055;-35.296;149.168;2023-04-23T03:19:49;7;7;
61815;PMS5003;57055;-35.296;149.168;2023-04-23T03:22:19;6;5;
61815;PMS5003;57055;-35.296;149.168;2023-04-23T03:24:47;5;5;
61815;PMS5003;57055;-35.296;149.168;2023-04-23T03:27:16;5;5;
61815;PMS5003;57055;-35.296;149.168;2023-04-23T03:29:44;6;4;
61815;PMS5003;57055;-35.296;149.168;2023-04-23T03:32:13;5;5;
61815;PMS5003;57055;-35.296;149.168;2023-04-23T03:34:42;4;4;
61815;PMS5003;57055;-35.296;149.168;2023-04-23T03:37:12;6;6;
61815;PMS5003;57055;-35.296;149.168;2023-04-23T03:39:40;4;4;
61815;PMS5003;57055;-35.296;149.168;2023-04-23T03:42:09;4;4;
61815;PMS5003;57055;-35.296;149.168;2023-04-23T03:44:37;4;4;
61815;PMS5003;57055;-35.296;149.168;2023-04-23T03:47:06;5;5;
61815;PMS5003;57055;-35.296;149.168;2023-04-23T03:49:35;7;5;
61815;PMS5003;57055;-35.296;149.168;2023-04-23T03:52:03;4;4;
61815;PMS5003;57055;-35.296;149.168;2023-04-23T03:54:32;8;6;
61815;PMS5003;57055;-35.296;149.168;2023-04-23T03:57:01;5;4;
61815;PMS5003;57055;-35.296;149.168;2023-04-23T03:59:29;3;3;
61815;PMS5003;57055;-35.296;149.168;2023-04-23T04:01:58;4;4;
61815;PMS5003;57055;-35.296;149.168;2023-04-23T04:04:26;5;4;
61815;PMS5003;57055;-35.296;149.168;2023-04-23T04:06:55;4;4;
61815;PMS5003;57055;-35.296;149.168;2023-04-23T04:09:25;6;6;
61815;PMS5003;57055;-35.296;149.168;2023-04-23T04:11:54;4;4;
61815;PMS5003;57055;-35.296;149.168;2023-04-23T04:14:23;6;6;
61815;PMS5003;57055;-35.296;149.168;2023-04-23T04:16:52;4;4;
61815;PMS5003;57055;-35.296;149.168;2023-04-23T04:19:21;5;5;
61815;PMS5003;57055;-35.296;149.168;2023-04-23T04:21:50;7;7;
61815;PMS5003;57055;-35.296;149.168;2023-04-23T04:24:19;4;4;
61815;PMS5003;57055;-35.296;149.168;2023-04-23T04:26:47;7;5;
61815;PMS5003;57055;-35.296;149.168;2023-04-23T04:29:17;5;4;
61815;PMS5003;57055;-35.296;149.168;2023-04-23T04:31:46;7;4;
61815;PMS5003;57055;-35.296;149.168;2023-04-23T04:34:15;5;5;
61815;PMS5003;57055;-35.296;149.168;2023-04-23T04:36:44;5;5;
61815;PMS5003;57055;-35.296;149.168;2023-04-23T04:39:13;5;5;
61815;PMS5003;57055;-35.296;149.168;2023-04-23T04:41:42;4;4;
61815;PMS5003;57055;-35.296;149.168;2023-04-23T04:44:12;5;5;
61815;PMS5003;57055;-35.296;149.168;2023-04-23T04:46:40;5;5;
61815;PMS5003;57055;-35.296;149.168;2023-04-23T04:49:10;5;5;
61815;PMS5003;57055;-35.296;149.168;2023-04-23T04:51:39;5;5;
61815;PMS5003;57055;-35.296;149.168;2023-04-23T04:54:08;4;4;
61815;PMS5003;57055;-35.296;149.168;2023-04-23T04:56:37;5;5;
61815;PMS5003;57055;-35.296;149.168;2023-04-23T04:59:06;4;4;
61815;PMS5003;57055;-35.296;149.168;2023-04-23T05:01:34;4;4;
61815;PMS5003;57055;-35.296;149.168;2023-04-23T05:04:03;6;4;
61815;PMS5003;57055;-35.296;149.168;2023-04-23T05:06:32;3;3;
61815;PMS5003;57055;-35.296;149.168;2023-04-23T05:09:01;6;6;
61815;PMS5003;57055;-35.296;149.168;2023-04-23T05:11:29;4;4;
61815;PMS5003;57055;-35.296;149.168;2023-04-23T05:13:59;5;5;
61815;PMS5003;57055;-35.296;149.168;2023-04-23T05:16:28;5;4;
61815;PMS5003;57055;-35.296;149.168;2023-04-23T05:18:57;4;4;
61815;PMS5003;57055;-35.296;149.168;2023-04-23T05:21:25;5;5;
61815;PMS5003;57055;-35.296;149.168;2023-04-23T05:23:55;6;5;
61815;PMS5003;57055;-35.296;149.168;2023-04-23T05:26:23;5;5;
61815;PMS5003;57055;-35.296;149.168;2023-04-23T05:28:52;5;4;
61815;PMS5003;57055;-35.296;149.168;2023-04-23T05:31:20;6;6;
61815;PMS5003;57055;-35.296;149.168;2023-04-23T05:33:49;5;5;
61815;PMS5003;57055;-35.296;149.168;2023-04-23T05:36:17;5;5;
61815;PMS5003;57055;-35.296;149.168;2023-04-23T05:38:46;5;5;
61815;PMS5003;57055;-35.296;149.168;2023-04-23T05:41:16;5;5;
61815;PMS5003;57055;-35.296;149.168;2023-04-23T05:43:45;6;6;
61815;PMS5003;57055;-35.296;149.168;2023-04-23T05:46:13;5;5;
61815;PMS5003;57055;-35.296;149.168;2023-04-23T05:48:42;5;5;
61815;PMS5003;57055;-35.296;149.168;2023-04-23T05:51:10;6;5;
61815;PMS5003;57055;-35.296;149.168;2023-04-23T05:53:40;7;6;
61815;PMS5003;57055;-35.296;149.168;2023-04-23T05:56:08;6;6;
61815;PMS5003;57055;-35.296;149.168;2023-04-23T05:58:37;5;5;
61815;PMS5003;57055;-35.296;149.168;2023-04-23T06:01:05;6;6;
61815;PMS5003;57055;-35.296;149.168;2023-04-23T06:03:34;5;5;
61815;PMS5003;57055;-35.296;149.168;2023-04-23T06:06:03;7;7;
61815;PMS5003;57055;-35.296;149.168;2023-04-23T06:08:32;5;5;
61815;PMS5003;57055;-35.296;149.168;2023-04-23T06:11:01;8;6;
61815;PMS5003;57055;-35.296;149.168;2023-04-23T06:13:29;8;6;
61815;PMS5003;57055;-35.296;149.168;2023-04-23T06:15:59;6;6;
61815;PMS5003;57055;-35.296;149.168;2023-04-23T06:18:28;7;7;
61815;PMS5003;57055;-35.296;149.168;2023-04-23T06:20:57;6;6;
61815;PMS5003;57055;-35.296;149.168;2023-04-23T06:23:26;7;7;
61815;PMS5003;57055;-35.296;149.168;2023-04-23T06:25:54;6;6;
61815;PMS5003;57055;-35.296;149.168;2023-04-23T06:28:23;8;8;
61815;PMS5003;57055;-35.296;149.168;2023-04-23T06:30:52;9;7;
61815;PMS5003;57055;-35.296;149.168;2023-04-23T06:33:21;5;5;
61815;PMS5003;57055;-35.296;149.168;2023-04-23T06:35:50;8;6;
61815;PMS5003;57055;-35.296;149.168;2023-04-23T06:38:18;10;9;
61815;PMS5003;57055;-35.296;149.168;2023-04-23T06:40:47;8;8;
61815;PMS5003;57055;-35.296;149.168;2023-04-23T06:43:31;8;8;
61815;PMS5003;57055;-35.296;149.168;2023-04-23T06:46:01;10;10;
61815;PMS5003;57055;-35.296;149.168;2023-04-23T06:48:30;10;9;
61815;PMS5003;57055;-35.296;149.168;2023-04-23T06:50:58;10;7;
61815;PMS5003;57055;-35.296;149.168;2023-04-23T06:53:27;8;8;
61815;PMS5003;57055;-35.296;149.168;2023-04-23T06:55:57;10;10;
61815;PMS5003;57055;-35.296;149.168;2023-04-23T06:58:26;9;9;
61815;PMS5003;57055;-35.296;149.168;2023-04-23T07:00:55;13;13;
61815;PMS5003;57055;-35.296;149.168;2023-04-23T07:03:25;12;10;
61815;PMS5003;57055;-35.296;149.168;2023-04-23T07:05:54;11;10;
61815;PMS5003;57055;-35.296;149.168;2023-04-23T07:08:23;10;10;
61815;PMS5003;57055;-35.296;149.168;2023-04-23T07:10:51;11;11;
61815;PMS5003;57055;-35.296;149.168;2023-04-23T07:13:20;10;10;
61815;PMS5003;57055;-35.296;149.168;2023-04-23T07:15:48;12;12;
61815;PMS5003;57055;-35.296;149.168;2023-04-23T07:18:18;13;13;
61815;PMS5003;57055;-35.296;149.168;2023-04-23T07:20:46;12;10;
61815;PMS5003;57055;-35.296;149.168;2023-04-23T07:23:15;10;10;
61815;PMS5003;57055;-35.296;149.168;2023-04-23T07:25:43;12;11;
61815;PMS5003;57055;-35.296;149.168;2023-04-23T07:28:13;15;13;
61815;PMS5003;57055;-35.296;149.168;2023-04-23T07:30:41;12;12;
61815;PMS5003;57055;-35.296;149.168;2023-04-23T07:33:10;12;12;
61815;PMS5003;57055;-35.296;149.168;2023-04-23T07:35:39;13;13;
61815;PMS5003;57055;-35.296;149.168;2023-04-23T07:38:08;13;12;
61815;PMS5003;57055;-35.296;149.168;2023-04-23T07:40:37;11;11;
61815;PMS5003;57055;-35.296;149.168;2023-04-23T07:43:06;14;14;
61815;PMS5003;57055;-35.296;149.168;2023-04-23T07:45:34;14;13;
61815;PMS5003;57055;-35.296;149.168;2023-04-23T07:48:03;11;10;
61815;PMS5003;57055;-35.296;149.168;2023-04-23T07:50:33;13;12;
61815;PMS5003;57055;-35.296;149.168;2023-04-23T07:53:01;13;13;
61815;PMS5003;57055;-35.296;149.168;2023-04-23T07:55:31;14;13;
61815;PMS5003;57055;-35.296;149.168;2023-04-23T07:57:59;19;17;
61815;PMS5003;57055;-35.296;149.168;2023-04-23T08:00:29;19;17;
61815;PMS5003;57055;-35.296;149.168;2023-04-23T08:02:57;20;20;
61815;PMS5003;57055;-35.296;149.168;2023-04-23T08:05:26;15;14;
61815;PMS5003;57055;-35.296;149.168;2023-04-23T08:07:55;16;15;
61815;PMS5003;57055;-35.296;149.168;2023-04-23T08:10:24;17;15;
61815;PMS5003;57055;-35.296;149.168;2023-04-23T08:12:53;17;14;
61815;PMS5003;57055;-35.296;149.168;2023-04-23T08:15:22;20;18;
61815;PMS5003;57055;-35.296;149.168;2023-04-23T08:17:50;17;16;
61815;PMS5003;57055;-35.296;149.168;2023-04-23T08:20:19;15;15;
61815;PMS5003;57055;-35.296;149.168;2023-04-23T08:22:48;18;15;
61815;PMS5003;57055;-35.296;149.168;2023-04-23T08:25:18;21;14;
61815;PMS5003;57055;-35.296;149.168;2023-04-23T08:27:47;16;15;
61815;PMS5003;57055;-35.296;149.168;2023-04-23T08:30:16;21;16;
61815;PMS5003;57055;-35.296;149.168;2023-04-23T08:32:45;19;18;
61815;PMS5003;57055;-35.296;149.168;2023-04-23T08:35:17;16;15;
61815;PMS5003;57055;-35.296;149.168;2023-04-23T08:37:46;20;19;
61815;PMS5003;57055;-35.296;149.168;2023-04-23T08:40:16;18;17;
61815;PMS5003;57055;-35.296;149.168;2023-04-23T08:42:47;22;21;
61815;PMS5003;57055;-35.296;149.168;2023-04-23T08:45:20;19;16;
61815;PMS5003;57055;-35.296;149.168;2023-04-23T08:47:50;19;19;
61815;PMS5003;57055;-35.296;149.168;2023-04-23T08:50:19;16;16;
61815;PMS5003;57055;-35.296;149.168;2023-04-23T08:52:49;21;18;
61815;PMS5003;57055;-35.296;149.168;2023-04-23T08:55:20;18;17;
61815;PMS5003;57055;-35.296;149.168;2023-04-23T08:57:50;20;17;
61815;PMS5003;57055;-35.296;149.168;2023-04-23T09:00:19;18;18;
61815;PMS5003;57055;-35.296;149.168;2023-04-23T09:02:49;17;16;
61815;PMS5003;57055;-35.296;149.168;2023-04-23T09:05:18;18;17;
61815;PMS5003;57055;-35.296;149.168;2023-04-23T09:07:47;21;19;
61815;PMS5003;57055;-35.296;149.168;2023-04-23T09:10:17;17;17;
61815;PMS5003;57055;-35.296;149.168;2023-04-23T09:12:45;17;17;
61815;PMS5003;57055;-35.296;149.168;2023-04-23T09:15:15;15;14;
61815;PMS5003;57055;-35.296;149.168;2023-04-23T09:17:45;17;17;
61815;PMS5003;57055;-35.296;149.168;2023-04-23T09:20:14;20;19;
61815;PMS5003;57055;-35.296;149.168;2023-04-23T09:22:44;18;18;
61815;PMS5003;57055;-35.296;149.168;2023-04-23T09:25:15;18;16;
61815;PMS5003;57055;-35.296;149.168;2023-04-23T09:27:45;18;16;
61815;PMS5003;57055;-35.296;149.168;2023-04-23T09:30:16;19;16;
61815;PMS5003;57055;-35.296;149.168;2023-04-23T09:32:47;22;21;
61815;PMS5003;57055;-35.296;149.168;2023-04-23T09:35:16;17;16;
61815;PMS5003;57055;-35.296;149.168;2023-04-23T09:37:46;16;16;
61815;PMS5003;57055;-35.296;149.168;2023-04-23T09:40:17;16;14;
61815;PMS5003;57055;-35.296;149.168;2023-04-23T09:42:49;16;16;
61815;PMS5003;57055;-35.296;149.168;2023-04-23T09:45:18;22;19;
61815;PMS5003;57055;-35.296;149.168;2023-04-23T09:47:49;18;18;
61815;PMS5003;57055;-35.296;149.168;2023-04-23T09:50:19;21;18;
61815;PMS5003;57055;-35.296;149.168;2023-04-23T09:53:00;21;20;
61815;PMS5003;57055;-35.296;149.168;2023-04-23T09:55:30;24;20;
61815;PMS5003;57055;-35.296;149.168;2023-04-23T09:58:01;19;18;
61815;PMS5003;57055;-35.296;149.168;2023-04-23T10:00:34;23;19;
61815;PMS5003;57055;-35.296;149.168;2023-04-23T10:03:04;20;18;
61815;PMS5003;57055;-35.296;149.168;2023-04-23T10:05:37;22;22;
61815;PMS5003;57055;-35.296;149.168;2023-04-23T10:08:07;24;21;
61815;PMS5003;57055;-35.296;149.168;2023-04-23T10:10:36;20;19;
61815;PMS5003;57055;-35.296;149.168;2023-04-23T10:13:06;23;20;
61815;PMS5003;57055;-35.296;149.168;2023-04-23T10:15:36;22;22;
61815;PMS5003;57055;-35.296;149.168;2023-04-23T10:18:05;18;16;
61815;PMS5003;57055;-35.296;149.168;2023-04-23T10:20:34;21;18;
61815;PMS5003;57055;-35.296;149.168;2023-04-23T10:23:03;22;19;
61815;PMS5003;57055;-35.296;149.168;2023-04-23T10:25:35;24;23;
61815;PMS5003;57055;-35.296;149.168;2023-04-23T10:28:07;20;19;
61815;PMS5003;57055;-35.296;149.168;2023-04-23T10:30:37;19;15;
61815;PMS5003;57055;-35.296;149.168;2023-04-23T10:33:07;23;22;
61815;PMS5003;57055;-35.296;149.168;2023-04-23T10:35:37;21;20;
61815;PMS5003;57055;-35.296;149.168;2023-04-23T10:38:06;20;19;
61815;PMS5003;57055;-35.296;149.168;2023-04-23T10:40:35;20;17;
61815;PMS5003;57055;-35.296;149.168;2023-04-23T10:43:07;23;21;
61815;PMS5003;57055;-35.296;149.168;2023-04-23T10:45:36;19;17;
61815;PMS5003;57055;-35.296;149.168;2023-04-23T10:48:05;18;18;
61815;PMS5003;57055;-35.296;149.168;2023-04-23T10:50:35;22;20;
61815;PMS5003;57055;-35.296;149.168;2023-04-23T10:53:04;18;15;
61815;PMS5003;57055;-35.296;149.168;2023-04-23T10:55:44;20;18;
61815;PMS5003;57055;-35.296;149.168;2023-04-23T10:58:14;21;19;
61815;PMS5003;57055;-35.296;149.168;2023-04-23T11:00:44;21;20;
61815;PMS5003;57055;-35.296;149.168;2023-04-23T11:03:30;21;19;
61815;PMS5003;57055;-35.296;149.168;2023-04-23T11:06:04;20;20;
61815;PMS5003;57055;-35.296;149.168;2023-04-23T11:08:34;17;17;
61815;PMS5003;57055;-35.296;149.168;2023-04-23T11:11:06;21;20;
61815;PMS5003;57055;-35.296;149.168;2023-04-23T11:13:35;24;21;
61815;PMS5003;57055;-35.296;149.168;2023-04-23T11:16:20;20;16;
61815;PMS5003;57055;-35.296;149.168;2023-04-23T11:19:07;17;16;
61815;PMS5003;57055;-35.296;149.168;2023-04-23T11:22:43;18;17;
61815;PMS5003;57055;-35.296;149.168;2023-04-23T11:25:15;20;19;
61815;PMS5003;57055;-35.296;149.168;2023-04-23T11:27:48;20;18;
61815;PMS5003;57055;-35.296;149.168;2023-04-23T11:30:18;21;20;
61815;PMS5003;57055;-35.296;149.168;2023-04-23T11:32:49;19;18;
61815;PMS5003;57055;-35.296;149.168;2023-04-23T11:35:21;19;19;
61815;PMS5003;57055;-35.296;149.168;2023-04-23T11:37:50;19;17;
61815;PMS5003;57055;-35.296;149.168;2023-04-23T11:40:21;21;19;
61815;PMS5003;57055;-35.296;149.168;2023-04-23T11:42:51;15;15;
61815;PMS5003;57055;-35.296;149.168;2023-04-23T11:45:21;22;20;
61815;PMS5003;57055;-35.296;149.168;2023-04-23T11:47:51;22;19;
61815;PMS5003;57055;-35.296;149.168;2023-04-23T11:50:22;19;18;
61815;PMS5003;57055;-35.296;149.168;2023-04-23T11:52:51;23;22;
61815;PMS5003;57055;-35.296;149.168;2023-04-23T11:55:21;23;21;
61815;PMS5003;57055;-35.296;149.168;2023-04-23T11:57:51;21;21;
61815;PMS5003;57055;-35.296;149.168;2023-04-23T12:00:20;23;20;
61815;PMS5003;57055;-35.296;149.168;2023-04-23T12:02:51;19;16;
61815;PMS5003;57055;-35.296;149.168;2023-04-23T12:05:25;19;17;
61815;PMS5003;57055;-35.296;149.168;2023-04-23T12:08:06;17;16;
61815;PMS5003;57055;-35.296;149.168;2023-04-23T12:10:41;17;16;
61815;PMS5003;57055;-35.296;149.168;2023-04-23T12:13:14;16;15;
61815;PMS5003;57055;-35.296;149.168;2023-04-23T12:15:45;20;20;
61815;PMS5003;57055;-35.296;149.168;2023-04-23T12:18:14;17;17;
61815;PMS5003;57055;-35.296;149.168;2023-04-23T12:20:44;17;17;
61815;PMS5003;57055;-35.296;149.168;2023-04-23T12:23:13;16;16;
61815;PMS5003;57055;-35.296;149.168;2023-04-23T12:25:42;17;14;
61815;PMS5003;57055;-35.296;149.168;2023-04-23T12:28:11;20;17;
61815;PMS5003;57055;-35.296;149.168;2023-04-23T12:30:42;17;17;
61815;PMS5003;57055;-35.296;149.168;2023-04-23T12:33:12;17;15;
61815;PMS5003;57055;-35.296;149.168;2023-04-23T12:35:41;16;14;
61815;PMS5003;57055;-35.296;149.168;2023-04-23T12:38:20;20;18;
61815;PMS5003;57055;-35.296;149.168;2023-04-23T12:40:50;14;14;
61815;PMS5003;57055;-35.296;149.168;2023-04-23T12:43:20;19;17;
61815;PMS5003;57055;-35.296;149.168;2023-04-23T12:45:50;15;14;
61815;PMS5003;57055;-35.296;149.168;2023-04-23T12:48:19;15;14;
61815;PMS5003;57055;-35.296;149.168;2023-04-23T12:50:47;19;18;
61815;PMS5003;57055;-35.296;149.168;2023-04-23T12:53:16;18;18;
61815;PMS5003;57055;-35.296;149.168;2023-04-23T12:55:45;18;14;
61815;PMS5003;57055;-35.296;149.168;2023-04-23T12:58:14;18;18;
61815;PMS5003;57055;-35.296;149.168;2023-04-23T13:00:43;17;15;
61815;PMS5003;57055;-35.296;149.168;2023-04-23T13:03:12;15;15;
61815;PMS5003;57055;-35.296;149.168;2023-04-23T13:05:41;18;17;
61815;PMS5003;57055;-35.296;149.168;2023-04-23T13:08:10;18;18;
61815;PMS5003;57055;-35.296;149.168;2023-04-23T13:10:39;18;18;
61815;PMS5003;57055;-35.296;149.168;2023-04-23T13:13:08;16;15;
61815;PMS5003;57055;-35.296;149.168;2023-04-23T13:15:38;20;20;
61815;PMS5003;57055;-35.296;149.168;2023-04-23T13:18:08;16;15;
61815;PMS5003;57055;-35.296;149.168;2023-04-23T13:20:37;17;17;
61815;PMS5003;57055;-35.296;149.168;2023-04-23T13:23:06;17;16;
61815;PMS5003;57055;-35.296;149.168;2023-04-23T13:25:34;14;13;
61815;PMS5003;57055;-35.296;149.168;2023-04-23T13:28:03;21;19;
61815;PMS5003;57055;-35.296;149.168;2023-04-23T13:30:33;17;16;
61815;PMS5003;57055;-35.296;149.168;2023-04-23T13:33:02;19;19;
61815;PMS5003;57055;-35.296;149.168;2023-04-23T13:35:31;17;14;
61815;PMS5003;57055;-35.296;149.168;2023-04-23T13:37:59;17;16;
61815;PMS5003;57055;-35.296;149.168;2023-04-23T13:40:28;21;17;
61815;PMS5003;57055;-35.296;149.168;2023-04-23T13:42:58;22;18;
61815;PMS5003;57055;-35.296;149.168;2023-04-23T13:45:27;20;18;
61815;PMS5003;57055;-35.296;149.168;2023-04-23T13:47:56;15;14;
61815;PMS5003;57055;-35.296;149.168;2023-04-23T13:50:26;16;15;
61815;PMS5003;57055;-35.296;149.168;2023-04-23T13:52:55;17;16;
61815;PMS5003;57055;-35.296;149.168;2023-04-23T13:55:24;16;14;
61815;PMS5003;57055;-35.296;149.168;2023-04-23T13:57:54;19;17;
61815;PMS5003;57055;-35.296;149.168;2023-04-23T14:00:22;20;19;
61815;PMS5003;57055;-35.296;149.168;2023-04-23T14:02:54;20;19;
61815;PMS5003;57055;-35.296;149.168;2023-04-23T14:05:23;15;15;
61815;PMS5003;57055;-35.296;149.168;2023-04-23T14:07:52;21;20;
61815;PMS5003;57055;-35.296;149.168;2023-04-23T14:10:22;16;16;
61815;PMS5003;57055;-35.296;149.168;2023-04-23T14:12:51;20;19;
61815;PMS5003;57055;-35.296;149.168;2023-04-23T14:15:20;17;15;
61815;PMS5003;57055;-35.296;149.168;2023-04-23T14:17:49;22;17;
61815;PMS5003;57055;-35.296;149.168;2023-04-23T14:20:18;17;14;
61815;PMS5003;57055;-35.296;149.168;2023-04-23T14:22:48;18;17;
61815;PMS5003;57055;-35.296;149.168;2023-04-23T14:25:40;17;17;
61815;PMS5003;57055;-35.296;149.168;2023-04-23T14:28:23;16;16;
61815;PMS5003;57055;-35.296;149.168;2023-04-23T14:31:05;19;18;
61815;PMS5003;57055;-35.296;149.168;2023-04-23T14:33:34;18;18;
61815;PMS5003;57055;-35.296;149.168;2023-04-23T14:36:03;19;17;
61815;PMS5003;57055;-35.296;149.168;2023-04-23T14:38:32;16;16;
61815;PMS5003;57055;-35.296;149.168;2023-04-23T14:41:02;19;19;
61815;PMS5003;57055;-35.296;149.168;2023-04-23T14:43:31;21;18;
61815;PMS5003;57055;-35.296;149.168;2023-04-23T14:46:00;20;19;
61815;PMS5003;57055;-35.296;149.168;2023-04-23T14:48:29;19;16;
61815;PMS5003;57055;-35.296;149.168;2023-04-23T14:50:58;18;16;
61815;PMS5003;57055;-35.296;149.168;2023-04-23T14:53:27;15;14;
61815;PMS5003;57055;-35.296;149.168;2023-04-23T14:55:56;15;14;
61815;PMS5003;57055;-35.296;149.168;2023-04-23T14:58:25;16;15;
61815;PMS5003;57055;-35.296;149.168;2023-04-23T15:00:53;19;19;
61815;PMS5003;57055;-35.296;149.168;2023-04-23T15:03:22;19;15;
61815;PMS5003;57055;-35.296;149.168;2023-04-23T15:05:52;17;15;
61815;PMS5003;57055;-35.296;149.168;2023-04-23T15:08:21;21;17;
61815;PMS5003;57055;-35.296;149.168;2023-04-23T15:10:50;14;14;
61815;PMS5003;57055;-35.296;149.168;2023-04-23T15:13:29;18;16;
61815;PMS5003;57055;-35.296;149.168;2023-04-23T15:16:07;15;14;
61815;PMS5003;57055;-35.296;149.168;2023-04-23T15:18:45;18;18;
61815;PMS5003;57055;-35.296;149.168;2023-04-23T15:21:14;21;19;
61815;PMS5003;57055;-35.296;149.168;2023-04-23T15:23:43;18;14;
61815;PMS5003;57055;-35.296;149.168;2023-04-23T15:26:11;17;13;
61815;PMS5003;57055;-35.296;149.168;2023-04-23T15:28:41;17;16;
61815;PMS5003;57055;-35.296;149.168;2023-04-23T15:31:09;16;14;
61815;PMS5003;57055;-35.296;149.168;2023-04-23T15:33:38;14;13;
61815;PMS5003;57055;-35.296;149.168;2023-04-23T15:36:08;16;15;
61815;PMS5003;57055;-35.296;149.168;2023-04-23T15:38:37;15;14;
61815;PMS5003;57055;-35.296;149.168;2023-04-23T15:41:06;15;14;
61815;PMS5003;57055;-35.296;149.168;2023-04-23T15:43:36;12;12;
61815;PMS5003;57055;-35.296;149.168;2023-04-23T15:46:05;16;14;
61815;PMS5003;57055;-35.296;149.168;2023-04-23T15:48:34;18;16;
61815;PMS5003;57055;-35.296;149.168;2023-04-23T15:51:03;17;17;
61815;PMS5003;57055;-35.296;149.168;2023-04-23T15:53:33;14;14;
61815;PMS5003;57055;-35.296;149.168;2023-04-23T15:56:01;19;17;